WetterOnline ( https://www.wetteronline.de )

Wetter aktuell Bielefeld

Aktuelles Wetter: Bad Salzuflen (139m)

6-stündlich | Neueste Meldungen
Ortszeit Temperatur Wetter
Do, 01.12. 19:00 2.1° C bedeckt
Do, 01.12. 13:00 3.5° C bedeckt
Do, 01.12. 7:00 3.5° C bewölkt
Do, 01.12. 1:00 4.3° C bedeckt
Mi, 30.11. 19:00 4.8° C Nebel
Mi, 30.11. 13:00 5.3° C Dunst
Mi, 30.11. 7:00 5.7° C bedeckt
Mi, 30.11. 1:00 6.6° C bedeckt
Ortszeit Temperatur Wetter
Do, 01.12. 22:00 1.7° C bewölkt
Do, 01.12. 21:50 1.7° C Dunst
Do, 01.12. 21:40 1.8° C Dunst
Do, 01.12. 21:30 1.8° C Sprühregen
Do, 01.12. 21:20 1.8° C Sprühregen
Do, 01.12. 21:10 1.9° C Sprühregen
Do, 01.12. 21:00 1.9° C bedeckt
Do, 01.12. 20:30 2.0° C bedeckt
Do, 01.12. 20:00 2.0° C bewölkt
Do, 01.12. 19:30 2.0° C bewölkt
Do, 01.12. 19:00 2.1° C bedeckt
Ortszeit Relative Feuchte Sichtweite
Do, 01.12. 19:00 93% 4.6 km
Do, 01.12. 13:00 86% 7 km
Do, 01.12. 7:00 97% 2.8 km
Do, 01.12. 1:00 98% 3.5 km
Mi, 30.11. 19:00 100% 0.3 km
Mi, 30.11. 13:00 99% 1.0 km
Mi, 30.11. 7:00 99% 3.8 km
Mi, 30.11. 1:00 98% 3.5 km
Ortszeit Relative Feuchte Sichtweite
Do, 01.12. 22:00 95% 3.2 km
Do, 01.12. 21:50 95% -
Do, 01.12. 21:40 94% -
Do, 01.12. 21:30 92% 4.2 km
Do, 01.12. 21:20 92% -
Do, 01.12. 21:10 92% -
Do, 01.12. 21:00 92% 5.0 km
Do, 01.12. 20:30 90% 5.0 km
Do, 01.12. 20:00 92% 5.0 km
Do, 01.12. 19:30 92% 4.9 km
Do, 01.12. 19:00 93% 4.6 km
Ortszeit Niederschlagsmenge Niederschlagsart
Do, 01.12. 19:00 0.0 l/m2 in 12 Std. -
Do, 01.12. 13:00 0.0 l/m2 in 6 Std. -
Do, 01.12. 7:00 0.1 l/m2 in 12 Std. Sprühregen
Do, 01.12. 1:00 0.1 l/m2 in 6 Std. Sprühregen
Mi, 30.11. 19:00 0.1 l/m2 in 12 Std. Regen
Mi, 30.11. 13:00 0.1 l/m2 in 6 Std. Sprühregen
Mi, 30.11. 7:00 1 l/m2 in 12 Std. Sprühregen
Mi, 30.11. 1:00 0.8 l/m2 in 6 Std. Regen
Ortszeit Niederschlagsmenge Niederschlagsart
Do, 01.12. 22:00 <0.05 l/m2 in 1 Std. Sprühregen
Do, 01.12. 21:50 keine Meldung -
Do, 01.12. 21:40 keine Meldung -
Do, 01.12. 21:30 <0.05 l/m2 in 1 Std. -
Do, 01.12. 21:20 keine Meldung -
Do, 01.12. 21:10 keine Meldung -
Do, 01.12. 21:00 0.0 l/m2 in 1 Std. -
Do, 01.12. 20:30 0.0 l/m2 in 1 Std. -
Do, 01.12. 20:00 0.0 l/m2 in 1 Std. -
Do, 01.12. 19:30 0.0 l/m2 in 1 Std. -
Do, 01.12. 19:00 0.0 l/m2 in 1 Std. -
Ortszeit Stärke Spitze Richtung
km/h Bft. km/h Grad Sektor
Do, 01.12. 19:00 7 2 19 40° NO
Do, 01.12. 13:00 4 1 18 50° NO
Do, 01.12. 7:00 7 2 18 30° NO
Do, 01.12. 1:00 7 2 18 20° N
Mi, 30.11. 19:00 7 2 17 20° N
Mi, 30.11. 13:00 6 1 13 30° NO
Mi, 30.11. 7:00 4 1 18 340° N
Mi, 30.11. 1:00 7 2 18 290° W
Ortszeit Stärke Spitze Richtung
km/h Bft. km/h Grad Sektor
Do, 01.12. 22:00 7 2 18 40° NO
Do, 01.12. 21:50 7 2 - 40° NO
Do, 01.12. 21:40 7 2 - 40° NO
Do, 01.12. 21:30 7 2 14 40° NO
Do, 01.12. 21:20 7 2 - 40° NO
Do, 01.12. 21:10 7 2 - 40° NO
Do, 01.12. 21:00 7 2 14 30° NO
Do, 01.12. 20:30 7 2 14 30° NO
Do, 01.12. 20:00 7 2 18 50° NO
Do, 01.12. 19:30 7 2 14 20° N
Do, 01.12. 19:00 7 2 15 40° NO
Ortszeit Untergrenze Bedeckung Gattung
total tief tief mittel hoch
Do, 01.12. 19:00 150 m 8/8 8/8 - - -
Do, 01.12. 13:00 360 m 8/8 8/8 - - -
Do, 01.12. 7:00 120 m 7/8 7/8 - - -
Do, 01.12. 1:00 30 m 8/8 8/8 - - -
Mi, 30.11. 19:00 <30 m 8/8 0/8 - - -
Mi, 30.11. 13:00 <30 m 8/8 0/8 - - -
Mi, 30.11. 7:00 <30 m 8/8 0/8 - - -
Mi, 30.11. 1:00 120 m 8/8 8/8 - - -
Ortszeit Bedeckungsgrad in Achtel und Wolkenuntergrenze
Do, 01.12. 22:00 7(60m)
Do, 01.12. 21:50 7(60m)
Do, 01.12. 21:40 8
Do, 01.12. 21:30 5(120m) 8(450m)
Do, 01.12. 21:20 5(120m) 8(450m)
Do, 01.12. 21:10 8
Do, 01.12. 21:00 8(450m)
Do, 01.12. 20:30 8(420m)
Do, 01.12. 20:00 7(300m)
Do, 01.12. 19:30 4(210m) 7(330m)
Do, 01.12. 19:00 8(150m)
Ortszeit Luftdruck NN (hPa) Tendenz (hPa in 3 Std.)
Do, 01.12. 19:00 1028 + 0,1
Do, 01.12. 13:00 1028 - 0,2
Do, 01.12. 7:00 1027 + 0,3
Do, 01.12. 1:00 1027 0,0
Mi, 30.11. 19:00 1026 + 1,0
Mi, 30.11. 13:00 1024 + 0,5
Mi, 30.11. 7:00 1022 + 0,6
Mi, 30.11. 1:00 1021 + 0,5
Ortszeit Luftdruck NN (hPa) Tendenz (hPa in 3 Std.)
Do, 01.12. 22:00 1028 - 0,1
Do, 01.12. 21:50 1028 keine Meldung
Do, 01.12. 21:40 1028 keine Meldung
Do, 01.12. 21:30 1028 + 0,1
Do, 01.12. 21:20 1028 keine Meldung
Do, 01.12. 21:10 1028 keine Meldung
Do, 01.12. 21:00 1028 + 0,2
Do, 01.12. 20:30 1028 + 0,3
Do, 01.12. 20:00 1028 + 0,3
Do, 01.12. 19:30 1028 + 0,3
Do, 01.12. 19:00 1028 + 0,1
Ortszeit Schneehöhe (cm)
Do, 01.12. 19:00 0
Do, 01.12. 13:00 0
Do, 01.12. 7:00 0
Do, 01.12. 1:00 0
Mi, 30.11. 19:00 0
Mi, 30.11. 13:00 0
Mi, 30.11. 7:00 0
Mi, 30.11. 1:00 0
Ortszeit Schneehöhe (cm)
Do, 01.12. 22:00 0
Do, 01.12. 21:50 0
Do, 01.12. 21:40 0
Do, 01.12. 21:30 0
Do, 01.12. 21:20 0
Do, 01.12. 21:10 0
Do, 01.12. 21:00 0
Do, 01.12. 20:30 0
Do, 01.12. 20:00 0
Do, 01.12. 19:30 0
Do, 01.12. 19:00 0
Link zu dieser Seite / Seite empfehlen

Das Wetter in ...